Time;durP1;ratioP1;P1;durP2;ratioP2;P2;SDS_P1;SDS_P2;PMS_P1;PMS_P2;Temp;Humidity;BMP_temperature;BMP_pressure;BME280_temperature;BME280_humidity;BME280_pressure;Samples;Min_cycle;Max_cycle;Signal;HPM_P1;HPM_P2
2022/11/04 00:01:49;;;;;;;21.65;16.55;;;12.60;99.90;;;;;;4915893;28;20031;-79
2022/11/04 00:04:18;;;;;;;20.42;15.18;;;12.60;99.90;;;;;;4943247;29;20038;-79
2022/11/04 00:06:44;;;;;;;21.42;17.13;;;12.60;99.90;;;;;;4945505;28;20043;-79
2022/11/04 00:09:14;;;;;;;18.13;14.75;;;12.00;99.90;;;;;;4921364;29;20191;-78
2022/11/04 00:14:27;;;;;;;19.90;14.93;;;12.20;99.90;;;;;;4942173;29;20058;-78
2022/11/04 00:30:33;;;;;;;16.30;13.45;;;12.30;99.90;;;;;;4930406;28;20107;-77
2022/11/04 00:35:50;;;;;;;13.55;11.05;;;12.00;99.90;;;;;;4949565;28;20047;-78
2022/11/04 00:38:17;;;;;;;15.30;10.82;;;12.30;99.90;;;;;;4944242;29;20191;-78
2022/11/04 00:40:43;;;;;;;14.93;12.85;;;11.90;99.90;;;;;;4929474;28;20241;-78
2022/11/04 00:43:08;;;;;;;16.92;13.20;;;12.10;99.90;;;;;;4947256;28;20046;-78
2022/11/04 00:45:34;;;;;;;23.08;16.05;;;11.70;99.90;;;;;;4930759;28;20097;-77
2022/11/04 00:48:00;;;;;;;19.40;15.15;;;12.20;99.90;;;;;;4947345;28;20094;-78
2022/11/04 00:50:26;;;;;;;20.10;15.38;;;12.30;99.90;;;;;;4930990;29;20043;-78
2022/11/04 00:53:00;;;;;;;13.93;11.32;;;11.70;99.90;;;;;;4958719;28;20153;-77
2022/11/04 00:55:30;;;;;;;14.90;10.63;;;11.70;99.90;;;;;;4947688;28;20278;-78
2022/11/04 00:57:57;;;;;;;9.30;7.35;;;12.10;99.90;;;;;;4979561;28;20038;-77
2022/11/04 01:00:23;;;;;;;7.13;6.10;;;12.30;99.90;;;;;;4968466;28;20046;-76
2022/11/04 01:02:49;;;;;;;6.72;5.63;;;12.20;99.90;;;;;;4953461;28;20081;-77
2022/11/04 01:05:14;;;;;;;7.32;4.82;;;12.00;99.90;;;;;;4958880;28;20038;-77
2022/11/04 01:07:40;;;;;;;7.03;4.97;;;11.90;99.90;;;;;;4929293;28;20038;-76
2022/11/04 01:10:06;;;;;;;4.13;3.20;;;12.00;99.90;;;;;;4959354;28;20039;-78
2022/11/04 01:12:32;;;;;;;3.20;2.60;;;11.10;99.90;;;;;;4976408;28;20314;-78
2022/11/04 01:14:58;;;;;;;2.88;2.03;;;11.30;99.90;;;;;;4971307;28;20035;-76
2022/11/04 01:17:24;;;;;;;2.80;1.77;;;11.60;99.90;;;;;;4961339;28;20038;-77
2022/11/04 01:19:49;;;;;;;2.97;1.58;;;11.20;99.90;;;;;;4965366;28;20182;-77
2022/11/04 01:22:15;;;;;;;2.42;1.50;;;10.90;99.90;;;;;;4977212;28;20152;-76
2022/11/04 01:24:40;;;;;;;1.90;1.20;;;11.50;99.90;;;;;;4938585;28;20030;-77
2022/11/04 01:27:06;;;;;;;2.03;1.30;;;11.70;99.90;;;;;;4925564;29;20070;-77
2022/11/04 01:29:32;;;;;;;2.78;1.20;;;11.60;99.90;;;;;;4930154;28;20356;-77
2022/11/04 01:31:57;;;;;;;3.05;0.88;;;10.80;99.90;;;;;;4976585;28;20039;-76
2022/11/04 01:34:23;;;;;;;2.25;0.80;;;11.30;99.90;;;;;;4946930;29;20348;-76
2022/11/04 01:36:49;;;;;;;3.20;1.10;;;11.70;99.90;;;;;;4958898;29;20137;-76
2022/11/04 01:39:14;;;;;;;2.13;1.10;;;11.00;99.90;;;;;;4949218;29;20031;-77
2022/11/04 01:41:40;;;;;;;3.15;0.90;;;11.00;99.90;;;;;;4960107;29;20028;-76
2022/11/04 01:44:40;;;;;;;2.47;1.00;;;11.30;99.90;;;;;;4922436;29;20031;-77
2022/11/04 01:47:34;;;;;;;2.38;1.20;;;10.90;99.90;;;;;;4936470;29;20115;-76
2022/11/04 01:50:04;;;;;;;3.35;1.00;;;10.70;99.90;;;;;;4943846;29;20098;-77
2022/11/04 01:52:36;;;;;;;2.33;0.90;;;11.10;99.90;;;;;;4944194;29;20039;-76
2022/11/04 01:55:07;;;;;;;2.40;0.90;;;11.10;99.90;;;;;;4969207;28;20038;-77
2022/11/04 01:57:40;;;;;;;1.88;0.90;;;11.60;99.90;;;;;;4959517;29;20066;-78
2022/11/04 02:00:07;;;;;;;1.83;0.93;;;11.70;99.90;;;;;;4962524;28;20039;-78
2022/11/04 02:02:39;;;;;;;2.20;0.90;;;11.40;99.90;;;;;;4965815;28;20059;-79
2022/11/04 02:05:05;;;;;;;1.35;0.90;;;10.80;99.90;;;;;;4944419;29;20496;-77
2022/11/04 02:07:31;;;;;;;1.13;0.90;;;10.70;99.90;;;;;;4932150;28;20082;-77
2022/11/04 02:09:57;;;;;;;2.25;0.93;;;10.90;99.90;;;;;;4923936;28;20043;-77
2022/11/04 02:15:07;;;;;;;2.70;0.88;;;11.00;99.90;;;;;;4942827;29;20050;-79
2022/11/04 02:17:52;;;;;;;2.80;0.82;;;11.50;99.90;;;;;;4964528;29;20225;-79
2022/11/04 02:20:38;;;;;;;1.67;0.87;;;10.90;99.90;;;;;;4960504;28;20035;-78
2022/11/04 02:23:39;;;;;;;1.05;0.65;;;11.60;99.90;;;;;;4965060;28;20060;-77
2022/11/04 02:26:23;;;;;;;2.47;0.90;;;11.70;99.90;;;;;;4963045;28;20752;-78
2022/11/04 02:29:07;;;;;;;3.83;0.87;;;10.80;99.90;;;;;;4963466;29;20079;-78
2022/11/04 02:31:51;;;;;;;2.75;0.80;;;10.80;99.90;;;;;;4947513;29;20058;-77
2022/11/04 02:34:35;;;;;;;5.55;0.80;;;11.20;99.90;;;;;;4967007;28;20054;-78
2022/11/04 02:37:26;;;;;;;1.55;0.70;;;11.00;99.90;;;;;;4977724;28;20111;-78
2022/11/04 02:40:34;;;;;;;3.40;0.70;;;11.20;99.90;;;;;;4968566;28;20477;-77
2022/11/04 02:43:20;;;;;;;2.67;0.60;;;11.30;99.90;;;;;;4970631;28;20074;-78
2022/11/04 02:45:49;;;;;;;1.63;0.70;;;10.90;99.90;;;;;;4965638;28;20047;-78
2022/11/04 02:48:37;;;;;;;3.58;0.80;;;10.90;99.90;;;;;;4957225;28;20054;-78
2022/11/04 02:51:14;;;;;;;4.60;0.88;;;11.40;99.90;;;;;;4951574;29;20121;-77
2022/11/04 02:54:09;;;;;;;4.65;0.73;;;11.40;99.90;;;;;;4950761;28;20034;-77
2022/11/04 02:56:43;;;;;;;4.70;0.70;;;10.70;99.90;;;;;;4947508;28;20050;-78
2022/11/04 02:59:17;;;;;;;2.38;0.73;;;11.30;99.90;;;;;;4967545;28;20098;-78
2022/11/04 03:01:44;;;;;;;3.17;0.57;;;10.60;99.90;;;;;;4978375;28;20027;-78
2022/11/04 03:04:16;;;;;;;2.13;0.70;;;11.20;99.90;;;;;;4968822;28;20054;-78
2022/11/04 03:06:46;;;;;;;7.03;0.85;;;10.60;99.90;;;;;;4968640;28;20050;-78
2022/11/04 03:09:14;;;;;;;2.72;0.70;;;10.60;99.90;;;;;;4948768;28;20070;-77
2022/11/04 03:11:43;;;;;;;4.28;0.73;;;11.40;99.90;;;;;;4976436;28;20026;-76
2022/11/04 03:14:19;;;;;;;3.90;0.70;;;11.30;99.90;;;;;;4959305;28;20293;-78
2022/11/04 03:16:53;;;;;;;4.18;0.80;;;10.90;99.90;;;;;;4950106;28;20029;-78
2022/11/04 03:19:41;;;;;;;4.03;0.90;;;10.70;99.90;;;;;;4952385;28;20038;-78
2022/11/04 03:22:17;;;;;;;4.75;0.80;;;10.70;99.90;;;;;;4960664;28;20101;-78
2022/11/04 03:24:46;;;;;;;4.97;0.80;;;10.80;99.90;;;;;;4955640;29;20035;-77
2022/11/04 03:27:50;;;;;;;4.35;0.70;;;11.40;99.90;;;;;;4965991;28;20194;-78
2022/11/04 03:30:18;;;;;;;3.28;0.85;;;11.20;99.90;;;;;;4974418;28;20034;-77
2022/11/04 03:32:44;;;;;;;6.75;2.05;;;11.40;99.90;;;;;;4974582;28;20038;-80
2022/11/04 03:35:12;;;;;;;5.80;0.98;;;10.60;99.90;;;;;;4962401;28;20059;-77
2022/11/04 03:37:38;;;;;;;5.10;0.80;;;11.30;99.90;;;;;;4960453;29;20051;-78
2022/11/04 03:40:05;;;;;;;2.42;0.70;;;10.80;99.90;;;;;;4954345;29;20049;-78
2022/11/04 03:42:35;;;;;;;6.85;1.00;;;11.20;99.90;;;;;;4964487;28;20046;-77
2022/11/04 03:45:01;;;;;;;3.10;0.80;;;10.70;99.90;;;;;;4946082;29;20042;-78
2022/11/04 03:47:29;;;;;;;4.07;0.65;;;11.30;99.90;;;;;;4939092;29;20031;-76
2022/11/04 03:50:14;;;;;;;4.70;1.00;;;11.40;99.90;;;;;;4961633;29;20035;-76
2022/11/04 03:52:40;;;;;;;5.15;1.42;;;11.60;99.90;;;;;;4957760;29;20051;-78
2022/11/04 03:55:09;;;;;;;1.80;0.90;;;10.80;99.90;;;;;;4951584;28;20042;-77
2022/11/04 03:57:56;;;;;;;2.70;1.17;;;11.50;99.90;;;;;;4961783;29;20039;-78
2022/11/04 04:00:23;;;;;;;6.38;1.10;;;11.60;99.90;;;;;;4958203;28;20058;-79
2022/11/04 04:03:21;;;;;;;5.30;1.10;;;11.40;99.90;;;;;;4947866;29;20224;-76
2022/11/04 04:05:52;;;;;;;2.85;0.90;;;10.80;99.90;;;;;;4954143;29;20074;-76
2022/11/04 04:08:36;;;;;;;4.30;1.10;;;10.60;99.90;;;;;;4958109;29;20041;-77
2022/11/04 04:11:24;;;;;;;2.20;0.90;;;11.30;99.90;;;;;;4946555;29;20039;-76
2022/11/04 04:13:55;;;;;;;2.63;0.80;;;10.90;99.90;;;;;;4975639;28;20050;-77
2022/11/04 04:16:31;;;;;;;5.93;1.08;;;10.70;99.90;;;;;;4942331;29;20040;-78
2022/11/04 04:19:08;;;;;;;3.63;0.90;;;11.20;99.90;;;;;;4968147;28;20130;-78
2022/11/04 04:21:44;;;;;;;2.67;1.05;;;10.80;99.90;;;;;;4947305;28;20317;-78
2022/11/04 04:29:44;;;;;;;2.58;1.30;;;11.40;99.90;;;;;;4955910;28;20122;-77
2022/11/04 04:32:10;;;;;;;6.85;1.60;;;10.80;99.90;;;;;;4943996;29;20114;-76
2022/11/04 04:34:36;;;;;;;9.57;1.92;;;11.30;99.90;;;;;;4954282;28;20063;-74
2022/11/04 04:37:10;;;;;;;4.68;1.50;;;11.60;99.90;;;;;;4946261;29;20046;-75
2022/11/04 04:45:35;;;;;;;2.88;0.80;;;10.90;99.90;;;;;;4934715;29;20042;-77
2022/11/04 04:48:00;;;;;;;1.70;0.70;;;11.20;99.90;;;;;;4964945;28;20241;-76
2022/11/04 04:50:30;;;;;;;1.45;0.60;;;11.50;99.90;;;;;;4948688;28;20042;-76
2022/11/04 04:52:58;;;;;;;4.43;0.80;;;10.60;99.90;;;;;;4958425;28;20046;-77
2022/11/04 04:55:24;;;;;;;2.13;0.70;;;10.60;99.90;;;;;;4961953;29;20031;-76
2022/11/04 04:57:50;;;;;;;2.85;1.02;;;10.80;99.90;;;;;;4950166;28;20031;-76
2022/11/04 05:00:18;;;;;;;4.35;1.23;;;11.20;99.90;;;;;;4961345;29;20066;-77
2022/11/04 05:02:44;;;;;;;4.85;1.10;;;10.50;99.90;;;;;;4964625;28;20098;-78
2022/11/04 05:05:12;;;;;;;4.40;1.08;;;10.60;99.90;;;;;;4949477;28;20090;-77
2022/11/04 05:07:38;;;;;;;4.15;0.75;;;10.70;99.90;;;;;;4948360;28;20031;-77
2022/11/04 05:10:05;;;;;;;4.35;1.05;;;11.00;99.90;;;;;;4944183;29;20123;-76
2022/11/04 05:15:15;;;;;;;2.30;0.90;;;11.10;99.90;;;;;;4960715;29;20061;-77
2022/11/04 05:17:41;;;;;;;1.27;0.82;;;10.30;99.90;;;;;;4980360;28;20035;-76
2022/11/04 05:20:07;;;;;;;3.45;0.70;;;11.00;99.90;;;;;;4960569;29;20198;-76
2022/11/04 05:22:33;;;;;;;6.50;0.90;;;11.00;99.90;;;;;;4946375;28;20089;-77
2022/11/04 05:24:58;;;;;;;2.55;0.88;;;11.10;99.90;;;;;;4914028;29;20031;-76
2022/11/04 05:27:24;;;;;;;2.80;0.65;;;11.00;99.90;;;;;;4960237;28;20031;-77
2022/11/04 05:29:49;;;;;;;3.30;0.85;;;10.80;99.90;;;;;;4948768;28;20114;-75
2022/11/04 05:32:15;;;;;;;2.90;0.90;;;10.90;99.90;;;;;;4929214;29;20047;-76
2022/11/04 05:34:41;;;;;;;6.75;0.90;;;10.00;99.90;;;;;;4945380;28;20105;-76
2022/11/04 05:37:06;;;;;;;4.18;0.90;;;10.90;99.90;;;;;;4977114;28;20069;-77
2022/11/04 05:39:32;;;;;;;3.58;0.63;;;10.90;99.90;;;;;;4945148;29;20470;-77
2022/11/04 05:41:58;;;;;;;3.95;0.75;;;10.00;99.90;;;;;;4938176;29;20268;-77
2022/11/04 05:44:24;;;;;;;3.85;0.80;;;10.10;99.90;;;;;;4961075;29;20137;-77
2022/11/04 05:46:49;;;;;;;2.78;0.70;;;10.20;99.90;;;;;;4945320;29;20035;-79
2022/11/04 05:49:15;;;;;;;2.72;1.10;;;10.00;99.90;;;;;;4945114;29;20031;-75
2022/11/04 05:51:41;;;;;;;2.20;0.60;;;9.90;99.90;;;;;;4958698;29;20027;-76
2022/11/04 05:54:08;;;;;;;2.40;0.80;;;9.90;99.90;;;;;;4923789;29;20347;-78
2022/11/04 05:56:33;;;;;;;4.43;0.75;;;9.90;99.90;;;;;;4959487;29;20039;-76
2022/11/04 05:58:59;;;;;;;3.80;1.23;;;10.60;99.90;;;;;;4954039;29;20042;-75
2022/11/04 06:01:32;;;;;;;2.08;0.70;;;9.80;99.90;;;;;;4944563;29;20039;-77
2022/11/04 06:03:59;;;;;;;3.33;0.60;;;10.30;99.90;;;;;;4960909;29;20066;-77
2022/11/04 06:06:27;;;;;;;2.92;0.70;;;9.70;99.90;;;;;;4961689;29;20051;-77
2022/11/04 06:08:53;;;;;;;1.17;0.70;;;9.70;99.90;;;;;;4961758;29;20091;-75
2022/11/04 06:11:21;;;;;;;3.50;0.90;;;9.70;99.90;;;;;;4961678;29;20035;-76
2022/11/04 06:13:47;;;;;;;2.65;0.77;;;10.30;99.90;;;;;;4928425;28;20050;-76
2022/11/04 06:16:13;;;;;;;2.90;1.15;;;9.60;99.90;;;;;;4956155;29;20035;-78
2022/11/04 06:18:39;;;;;;;10.25;1.52;;;9.70;99.90;;;;;;4945483;29;20046;-76
2022/11/04 06:21:13;;;;;;;2.00;0.70;;;10.20;99.90;;;;;;4946124;29;20023;-75
2022/11/04 06:23:40;;;;;;;2.97;0.77;;;9.70;99.90;;;;;;4943220;29;20031;-78
2022/11/04 06:26:07;;;;;;;5.20;0.93;;;10.10;99.90;;;;;;4933927;29;20035;-77
2022/11/04 06:28:33;;;;;;;2.30;0.63;;;10.40;99.90;;;;;;4960943;29;20070;-80
2022/11/04 06:31:02;;;;;;;2.15;1.05;;;10.00;99.90;;;;;;4925219;29;20237;-77
2022/11/04 06:33:29;;;;;;;3.88;1.10;;;10.10;99.90;;;;;;4960235;29;20210;-78
2022/11/04 06:35:59;;;;;;;1.70;0.70;;;9.90;99.90;;;;;;4951827;28;20059;-76
2022/11/04 06:38:25;;;;;;;2.70;0.90;;;9.90;99.90;;;;;;4963575;28;20045;-74
2022/11/04 06:40:51;;;;;;;5.88;0.93;;;10.40;99.90;;;;;;4964659;28;20038;-80
2022/11/04 06:43:16;;;;;;;2.72;1.15;;;10.40;99.90;;;;;;4963271;28;20043;-79
2022/11/04 06:45:42;;;;;;;7.28;1.52;;;9.70;99.90;;;;;;4965086;28;20050;-80
2022/11/04 06:48:08;;;;;;;6.47;1.27;;;10.20;99.90;;;;;;4952457;28;20049;-77
2022/11/04 06:50:34;;;;;;;6.72;1.17;;;9.80;99.90;;;;;;4951779;28;20034;-78
2022/11/04 06:52:59;;;;;;;5.80;1.30;;;10.40;99.90;;;;;;4967907;28;20047;-79
2022/11/04 06:55:25;;;;;;;3.78;1.00;;;9.90;99.90;;;;;;4967146;28;20094;-76
2022/11/04 06:57:51;;;;;;;2.22;1.00;;;9.90;99.90;;;;;;4952235;28;20041;-78
2022/11/04 07:00:17;;;;;;;2.25;1.13;;;10.10;99.90;;;;;;4968072;28;20030;-79
2022/11/04 07:02:43;;;;;;;3.70;1.25;;;9.50;99.90;;;;;;4967824;28;20054;-78
2022/11/04 07:05:09;;;;;;;5.93;1.10;;;9.60;99.90;;;;;;4932112;29;20043;-76
2022/11/04 07:07:34;;;;;;;3.70;1.35;;;10.20;99.90;;;;;;4967436;28;20257;-76
2022/11/04 07:10:00;;;;;;;4.22;1.42;;;10.20;99.90;;;;;;4967862;28;20206;-76
2022/11/04 07:12:25;;;;;;;6.53;2.40;;;10.00;99.90;;;;;;4967508;28;20356;-76
2022/11/04 07:14:52;;;;;;;5.93;2.95;;;10.50;99.90;;;;;;4953912;28;20031;-76
2022/11/04 07:17:17;;;;;;;5.22;3.17;;;9.90;99.90;;;;;;4950685;28;20041;-75
2022/11/04 07:19:44;;;;;;;6.22;3.03;;;10.30;99.90;;;;;;4951515;28;20043;-77
2022/11/04 07:22:09;;;;;;;6.22;2.50;;;9.80;99.90;;;;;;4951577;28;20404;-77
2022/11/04 07:24:35;;;;;;;4.13;2.25;;;10.10;99.90;;;;;;4950268;28;20034;-75
2022/11/04 07:27:01;;;;;;;5.10;2.22;;;9.90;99.90;;;;;;4951311;28;20483;-73
2022/11/04 07:29:27;;;;;;;5.00;2.95;;;9.80;99.90;;;;;;4931359;29;20038;-75
2022/11/04 07:31:54;;;;;;;3.97;2.10;;;9.70;99.90;;;;;;4951815;28;20061;-76
2022/11/04 07:34:20;;;;;;;3.78;2.25;;;9.60;99.90;;;;;;4965293;28;20051;-76
2022/11/04 07:36:47;;;;;;;4.22;2.08;;;10.30;99.90;;;;;;4951100;28;20070;-79
2022/11/04 07:39:12;;;;;;;5.65;2.05;;;10.30;99.90;;;;;;4948472;29;20062;-77
2022/11/04 07:41:38;;;;;;;5.00;1.95;;;9.60;99.90;;;;;;4948748;28;20031;-76
2022/11/04 07:44:04;;;;;;;3.75;1.90;;;10.00;99.90;;;;;;4947916;29;20031;-76
2022/11/04 07:46:34;;;;;;;5.47;2.17;;;10.40;99.90;;;;;;4963254;28;20109;-75
2022/11/04 07:49:00;;;;;;;3.28;1.98;;;10.40;99.90;;;;;;4963942;29;20035;-78
2022/11/04 07:51:29;;;;;;;5.28;1.60;;;10.30;99.90;;;;;;4947664;29;20066;-79
2022/11/04 07:53:54;;;;;;;2.97;1.40;;;10.70;99.90;;;;;;4951143;28;20043;-76
2022/11/04 07:56:22;;;;;;;25.08;2.03;;;10.70;99.90;;;;;;4965105;28;20034;-77
2022/11/04 07:58:54;;;;;;;7.60;1.25;;;10.30;99.90;;;;;;4966618;28;20329;-77
2022/11/04 08:01:23;;;;;;;1.33;0.90;;;12.20;99.90;;;;;;4947258;29;20043;-78
2022/11/04 08:03:52;;;;;;;4.85;1.40;;;10.50;99.90;;;;;;4982100;28;20221;-77
2022/11/04 08:06:19;;;;;;;3.35;1.00;;;13.60;99.90;;;;;;4955946;29;20055;-78
2022/11/04 08:08:46;;;;;;;3.95;1.45;;;11.50;99.90;;;;;;4946821;29;20344;-77
2022/11/04 08:11:17;;;;;;;18.15;1.50;;;11.00;99.90;;;;;;4958352;29;20047;-78
2022/11/04 08:13:44;;;;;;;1.85;0.70;;;11.90;99.90;;;;;;4947587;29;20064;-80
2022/11/04 08:16:13;;;;;;;3.72;1.00;;;11.40;99.90;;;;;;4952062;29;20078;-79
2022/11/04 08:18:40;;;;;;;4.05;1.20;;;11.20;99.90;;;;;;4964889;28;20046;-79
2022/11/04 08:21:06;;;;;;;2.58;1.10;;;11.80;99.90;;;;;;4963421;29;20045;-78
2022/11/04 08:23:33;;;;;;;5.32;1.08;;;11.40;99.90;;;;;;4963692;28;20320;-79
2022/11/04 08:25:59;;;;;;;4.03;1.70;;;12.00;99.90;;;;;;4975278;28;20305;-77
2022/11/04 08:28:25;;;;;;;3.90;1.10;;;11.70;99.90;;;;;;4950026;28;20079;-77
2022/11/04 08:31:01;;;;;;;4.03;0.98;;;12.30;99.90;;;;;;4934543;28;20047;-78
2022/11/04 08:33:28;;;;;;;4.55;1.15;;;12.10;99.90;;;;;;4962513;29;20053;-77
2022/11/04 08:35:59;;;;;;;3.97;1.00;;;13.20;99.90;;;;;;4948489;28;20122;-77
2022/11/04 08:38:28;;;;;;;4.38;1.10;;;12.80;99.90;;;;;;4953166;28;20035;-78
2022/11/04 08:41:02;;;;;;;2.60;0.80;;;12.90;99.90;;;;;;4946696;29;20034;-78
2022/11/04 08:43:28;;;;;;;4.00;0.93;;;12.90;99.90;;;;;;4946706;28;20067;-79
2022/11/04 08:45:54;;;;;;;3.72;0.80;;;13.30;99.90;;;;;;4962700;29;20102;-78
2022/11/04 08:48:20;;;;;;;1.20;0.60;;;13.40;99.90;;;;;;4963315;29;20090;-77
2022/11/04 08:50:50;;;;;;;2.05;0.85;;;13.10;99.90;;;;;;4966268;28;20035;-76
2022/11/04 08:53:16;;;;;;;1.95;0.90;;;13.30;99.90;;;;;;4946578;29;20453;-76
2022/11/04 08:55:42;;;;;;;2.22;1.13;;;13.30;99.90;;;;;;4964515;28;20050;-77
2022/11/04 08:58:08;;;;;;;3.38;1.00;;;14.00;99.90;;;;;;4945915;29;20063;-78
2022/11/04 09:00:33;;;;;;;3.28;0.85;;;13.60;99.90;;;;;;4944591;28;20862;-78
2022/11/04 09:02:59;;;;;;;2.83;1.10;;;13.60;99.90;;;;;;4934101;29;20043;-79
2022/11/04 09:05:25;;;;;;;2.85;1.00;;;14.00;99.90;;;;;;4945900;29;20057;-79
2022/11/04 09:07:51;;;;;;;3.10;1.17;;;13.70;99.90;;;;;;4932482;28;20043;-80
2022/11/04 09:10:25;;;;;;;1.77;1.02;;;13.60;99.90;;;;;;4976516;28;20333;-80
2022/11/04 09:12:51;;;;;;;4.32;0.90;;;13.50;99.90;;;;;;4968621;28;20088;-79
2022/11/04 09:15:17;;;;;;;2.05;1.00;;;13.90;99.90;;;;;;4963461;28;20071;-80
2022/11/04 09:17:43;;;;;;;3.65;0.93;;;13.70;99.90;;;;;;4947971;28;20035;-79
2022/11/04 09:20:09;;;;;;;3.03;0.90;;;13.80;99.90;;;;;;4933773;28;20030;-79
2022/11/04 09:22:34;;;;;;;2.38;0.80;;;13.80;99.90;;;;;;4954710;28;20034;-80
2022/11/04 09:25:00;;;;;;;2.65;1.00;;;12.90;99.90;;;;;;4964901;28;20038;-79
2022/11/04 09:27:26;;;;;;;3.05;1.00;;;13.50;99.90;;;;;;4959602;29;20039;-80
2022/11/04 09:29:52;;;;;;;3.90;0.90;;;13.70;99.90;;;;;;4911622;29;20314;-79
2022/11/04 09:32:17;;;;;;;1.42;0.73;;;13.40;99.90;;;;;;4944408;28;20488;-80
2022/11/04 09:34:43;;;;;;;2.85;0.98;;;13.50;99.90;;;;;;4965298;28;20241;-79
2022/11/04 09:37:09;;;;;;;2.13;0.80;;;13.60;99.90;;;;;;4945182;29;20241;-79
2022/11/04 09:39:35;;;;;;;2.78;0.80;;;13.50;99.90;;;;;;4946118;28;20031;-80
2022/11/04 09:42:09;;;;;;;1.15;0.65;;;13.60;99.90;;;;;;4945543;29;20042;-79
2022/11/04 09:44:42;;;;;;;2.65;0.90;;;13.90;99.90;;;;;;4962220;28;20089;-78
2022/11/04 09:47:11;;;;;;;3.22;0.90;;;14.40;99.90;;;;;;4961376;29;20079;-80
2022/11/04 09:49:41;;;;;;;2.67;0.80;;;14.50;99.90;;;;;;4945597;28;20139;-79
2022/11/04 09:52:22;;;;;;;1.83;0.65;;;16.20;99.90;;;;;;4964345;28;20042;-80
2022/11/04 09:55:23;;;;;;;1.13;0.90;;;14.60;99.90;;;;;;4948116;28;20050;-81
2022/11/04 09:57:55;;;;;;;3.40;0.70;;;15.10;99.90;;;;;;4949742;29;20039;-78
2022/11/04 10:00:21;;;;;;;3.17;0.70;;;14.80;99.90;;;;;;4977644;28;20058;-80
2022/11/04 10:03:20;;;;;;;4.82;0.90;;;15.20;99.90;;;;;;4963914;28;20322;-78
2022/11/04 10:06:17;;;;;;;2.28;0.95;;;14.80;99.90;;;;;;4963910;28;20035;-79
2022/11/04 10:09:12;;;;;;;6.47;1.45;;;14.60;99.90;;;;;;4946328;28;20050;-78
2022/11/04 10:11:56;;;;;;;4.18;1.15;;;14.00;99.90;;;;;;4957197;28;20078;-79
2022/11/04 10:14:35;;;;;;;2.83;1.48;;;14.60;99.90;;;;;;4966387;28;20379;-80
2022/11/04 10:17:13;;;;;;;2.67;0.75;;;15.00;99.90;;;;;;4963262;28;20050;-79
2022/11/04 10:20:17;;;;;;;2.97;1.08;;;14.70;99.90;;;;;;4948995;28;20071;-80
2022/11/04 10:23:04;;;;;;;4.78;1.17;;;14.40;99.90;;;;;;4944190;29;20047;-78
2022/11/04 10:25:44;;;;;;;4.22;1.02;;;14.40;99.90;;;;;;4959764;29;20039;-79
2022/11/04 10:28:19;;;;;;;5.13;1.10;;;14.30;99.90;;;;;;4931822;28;20043;-79
2022/11/04 10:30:47;;;;;;;2.75;1.13;;;14.50;99.90;;;;;;4965810;28;20031;-80
2022/11/04 10:33:18;;;;;;;3.28;1.13;;;14.20;99.90;;;;;;4982131;28;20256;-80
2022/11/04 10:35:48;;;;;;;5.13;0.93;;;13.90;99.90;;;;;;4981836;28;20035;-81
2022/11/04 10:38:32;;;;;;;3.65;1.08;;;14.00;99.90;;;;;;4959802;29;20050;-80
2022/11/04 10:40:58;;;;;;;2.42;0.90;;;13.60;99.90;;;;;;4964417;29;20034;-78
2022/11/04 10:43:36;;;;;;;1.85;0.73;;;13.70;99.90;;;;;;4963718;29;20043;-78
2022/11/04 10:46:26;;;;;;;3.80;1.27;;;13.70;99.90;;;;;;4979540;28;20194;-79
2022/11/04 10:49:20;;;;;;;3.85;1.00;;;13.60;99.90;;;;;;4979364;28;20035;-79
2022/11/04 10:51:46;;;;;;;2.42;0.90;;;13.40;99.90;;;;;;4948406;28;20337;-79
2022/11/04 10:54:12;;;;;;;3.10;1.00;;;13.30;99.90;;;;;;4948397;29;20039;-79
2022/11/04 10:56:46;;;;;;;5.15;1.08;;;13.30;99.90;;;;;;4933592;28;20102;-78
2022/11/04 10:59:29;;;;;;;3.60;0.90;;;13.20;99.90;;;;;;4947625;29;20035;-78
2022/11/04 11:02:00;;;;;;;3.20;1.35;;;13.20;99.90;;;;;;4960054;29;20039;-79
2022/11/04 11:04:27;;;;;;;4.97;2.13;;;13.20;99.90;;;;;;4961948;29;20078;-79
2022/11/04 11:06:55;;;;;;;3.45;1.00;;;13.20;99.90;;;;;;4946198;29;20102;-79
2022/11/04 11:09:27;;;;;;;3.28;1.17;;;13.20;99.90;;;;;;4946756;29;20050;-79
2022/11/04 11:12:12;;;;;;;3.92;0.85;;;13.40;99.90;;;;;;4944793;29;20049;-79
2022/11/04 11:14:39;;;;;;;5.13;1.15;;;13.50;99.90;;;;;;4963118;28;20253;-79
2022/11/04 11:17:18;;;;;;;4.60;1.30;;;13.30;99.90;;;;;;4930122;29;20317;-79
2022/11/04 11:19:57;;;;;;;2.95;1.13;;;13.30;99.90;;;;;;4947691;28;20222;-79
2022/11/04 11:22:40;;;;;;;4.20;1.27;;;13.00;99.90;;;;;;4960977;29;20093;-79
2022/11/04 11:25:28;;;;;;;3.15;1.30;;;13.30;99.90;;;;;;4977870;28;20031;-79
2022/11/04 11:27:56;;;;;;;5.32;1.10;;;13.20;99.90;;;;;;4965296;28;20285;-78
2022/11/04 11:30:35;;;;;;;5.15;1.30;;;13.20;99.90;;;;;;4963784;28;20042;-78
2022/11/04 11:33:22;;;;;;;7.30;1.30;;;13.00;99.90;;;;;;4963790;28;20081;-79
2022/11/04 11:36:15;;;;;;;7.18;1.83;;;13.10;99.90;;;;;;4965237;28;20043;-79
2022/11/04 11:39:04;;;;;;;2.83;0.82;;;13.10;99.90;;;;;;4939062;29;20226;-80
2022/11/04 11:41:32;;;;;;;4.15;1.20;;;13.00;99.90;;;;;;4930873;28;20039;-79
2022/11/04 11:44:17;;;;;;;4.28;1.00;;;13.10;99.90;;;;;;4960070;28;20325;-81
2022/11/04 11:46:54;;;;;;;7.40;1.10;;;13.20;99.90;;;;;;4950976;28;20043;-80
2022/11/04 11:49:32;;;;;;;2.97;1.08;;;13.30;99.90;;;;;;4937560;29;20039;-77
2022/11/04 11:52:26;;;;;;;2.50;1.00;;;13.30;99.90;;;;;;4982751;28;20038;-79
2022/11/04 11:55:17;;;;;;;2.90;0.95;;;13.30;99.90;;;;;;4944095;29;20051;-77
2022/11/04 11:57:52;;;;;;;5.03;1.33;;;13.20;99.90;;;;;;4954584;28;20054;-77
2022/11/04 12:00:21;;;;;;;6.43;1.45;;;12.90;99.90;;;;;;4963454;29;20047;-78
2022/11/04 12:02:53;;;;;;;7.53;1.63;;;12.40;99.90;;;;;;4971971;28;20046;-78
2022/11/04 12:05:26;;;;;;;4.57;1.10;;;12.00;99.90;;;;;;4953389;28;20039;-77
2022/11/04 12:08:07;;;;;;;3.72;0.90;;;11.70;99.90;;;;;;4977720;28;20054;-78
2022/11/04 12:10:42;;;;;;;6.25;1.10;;;11.50;99.90;;;;;;4962638;28;20054;-77
2022/11/04 12:13:13;;;;;;;2.35;0.75;;;11.20;99.90;;;;;;4960998;29;20325;-75
2022/11/04 12:15:54;;;;;;;3.25;1.60;;;10.90;99.90;;;;;;4960857;28;20314;-75
2022/11/04 12:18:34;;;;;;;3.60;0.90;;;10.80;99.90;;;;;;4946455;29;20035;-77
2022/11/04 12:21:12;;;;;;;5.00;1.30;;;11.00;99.90;;;;;;4962722;29;20186;-77
2022/11/04 12:24:18;;;;;;;5.40;1.13;;;11.00;99.90;;;;;;4963589;28;20126;-76
2022/11/04 12:27:05;;;;;;;2.90;1.20;;;11.00;99.90;;;;;;4977266;28;20369;-76
2022/11/04 12:29:45;;;;;;;5.20;1.27;;;11.10;99.90;;;;;;4946438;28;20039;-76
2022/11/04 12:32:23;;;;;;;3.38;1.40;;;11.00;99.90;;;;;;4961878;29;20043;-77
2022/11/04 12:35:10;;;;;;;6.93;1.42;;;11.10;99.90;;;;;;4965603;28;20601;-82
2022/11/04 12:38:09;;;;;;;3.35;1.00;;;11.40;99.90;;;;;;4935895;29;20240;-81
2022/11/04 12:40:50;;;;;;;2.72;1.25;;;11.60;99.90;;;;;;4943668;29;20286;-79
2022/11/04 12:43:40;;;;;;;3.45;1.27;;;11.60;99.90;;;;;;4927587;29;20050;-78
2022/11/04 12:46:25;;;;;;;2.03;1.13;;;11.70;99.90;;;;;;4927610;29;20039;-78
2022/11/04 12:48:53;;;;;;;3.95;1.65;;;11.50;99.90;;;;;;4927262;29;20086;-78
2022/11/04 12:51:36;;;;;;;2.05;1.23;;;11.50;99.90;;;;;;4927778;29;20091;-78
2022/11/04 12:54:26;;;;;;;2.33;1.02;;;11.40;99.90;;;;;;4943005;29;20040;-77
2022/11/04 12:57:15;;;;;;;2.00;1.00;;;11.50;99.90;;;;;;4927186;29;20090;-78
2022/11/04 13:00:03;;;;;;;3.50;1.08;;;11.50;99.90;;;;;;4927357;29;20031;-78
2022/11/04 13:03:01;;;;;;;2.70;0.95;;;11.50;99.90;;;;;;4927281;29;20043;-78
2022/11/04 13:05:39;;;;;;;4.28;1.52;;;11.70;99.90;;;;;;4935917;29;20350;-78
2022/11/04 13:08:27;;;;;;;3.25;1.20;;;11.60;99.90;;;;;;4943093;29;20039;-78
2022/11/04 13:11:00;;;;;;;5.63;1.75;;;11.70;99.90;;;;;;4927036;29;20148;-78
2022/11/04 13:13:31;;;;;;;3.45;1.30;;;11.70;99.90;;;;;;4943077;29;20441;-78
2022/11/04 13:16:02;;;;;;;4.60;1.17;;;11.80;99.90;;;;;;4942942;29;20050;-78
2022/11/04 13:18:34;;;;;;;5.22;1.52;;;11.70;99.90;;;;;;4943340;29;20048;-79
2022/11/04 13:21:11;;;;;;;4.55;1.45;;;11.90;99.90;;;;;;4927379;29;20067;-80
2022/11/04 13:24:04;;;;;;;4.95;1.50;;;11.80;99.90;;;;;;4927498;29;20431;-79
2022/11/04 13:26:31;;;;;;;1.45;0.80;;;12.00;99.90;;;;;;4930585;29;20038;-79
2022/11/04 13:29:14;;;;;;;3.97;1.20;;;12.00;99.90;;;;;;4955017;28;20066;-77
2022/11/04 13:32:08;;;;;;;6.18;1.20;;;11.90;99.90;;;;;;4961786;29;20046;-78
2022/11/04 13:35:03;;;;;;;8.13;1.50;;;12.00;99.90;;;;;;4959197;29;20035;-76
2022/11/04 13:37:38;;;;;;;5.80;1.40;;;12.00;99.90;;;;;;4957943;29;20059;-76
2022/11/04 13:40:24;;;;;;;5.57;1.60;;;12.10;99.90;;;;;;4954916;29;20285;-76
2022/11/04 13:43:36;;;;;;;3.40;1.17;;;12.00;99.90;;;;;;4944758;29;20043;-73
2022/11/04 13:45:52;;;;;;;8.10;1.38;;;11.90;99.90;;;;;;4959784;29;20554;-77
2022/11/04 13:48:28;;;;;;;5.32;1.10;;;12.00;99.90;;;;;;4945438;29;20068;-78
2022/11/04 13:51:06;;;;;;;2.22;1.10;;;12.10;99.90;;;;;;4937613;29;20047;-77